createdAt,value
2022-12-23T00:01:22.664Z,12.07
2022-12-23T00:03:55.227Z,12.18
2022-12-23T00:06:25.143Z,10.95
2022-12-23T00:08:58.900Z,11.45
2022-12-23T00:11:30.466Z,11.82
2022-12-23T00:14:20.069Z,10.73
2022-12-23T00:16:51.941Z,11.05
2022-12-23T00:19:24.485Z,10.23
2022-12-23T00:21:54.342Z,10.27
2022-12-23T00:24:24.206Z,10.10
2022-12-23T00:26:54.070Z,10.45
2022-12-23T00:29:23.911Z,9.57
2022-12-23T00:31:53.791Z,9.60
2022-12-23T00:34:26.400Z,8.77
2022-12-23T00:36:56.271Z,9.52
2022-12-23T00:39:55.033Z,10.13
2022-12-23T00:42:37.855Z,12.00
2022-12-23T00:45:18.037Z,9.27
2022-12-23T00:48:02.650Z,10.00
2022-12-23T00:50:40.473Z,9.73
2022-12-23T00:53:10.328Z,9.38
2022-12-23T00:55:40.183Z,8.57
2022-12-23T00:58:10.049Z,9.55
2022-12-23T01:00:52.294Z,8.93
2022-12-23T01:03:43.391Z,10.73
2022-12-23T01:06:16.125Z,9.88
2022-12-23T01:08:46.222Z,9.25
2022-12-23T01:11:16.122Z,10.27
2022-12-23T01:13:46.005Z,11.82
2022-12-23T01:16:17.894Z,11.27
2022-12-23T01:18:47.961Z,10.38
2022-12-23T01:21:20.378Z,10.65
2022-12-23T01:23:50.297Z,8.68
2022-12-23T01:26:20.155Z,10.15
2022-12-23T01:28:50.609Z,11.27
2022-12-23T01:31:20.514Z,14.82
2022-12-23T01:33:50.769Z,14.25
2022-12-23T01:36:24.498Z,14.35
2022-12-23T01:38:54.741Z,14.07
2022-12-23T01:41:40.228Z,12.63
2022-12-23T01:44:51.032Z,11.02
2022-12-23T01:47:29.181Z,12.32
2022-12-23T01:50:03.777Z,11.40
2022-12-23T01:52:42.214Z,11.85
2022-12-23T01:55:12.939Z,10.63
2022-12-23T01:57:45.794Z,12.02
2022-12-23T02:00:29.321Z,12.77
2022-12-23T02:03:11.822Z,11.95
2022-12-23T02:05:41.926Z,12.35
2022-12-23T02:08:28.353Z,11.32
2022-12-23T02:11:28.022Z,12.32
2022-12-23T02:14:29.260Z,13.82
2022-12-23T02:17:12.808Z,12.13
2022-12-23T02:20:21.585Z,13.15
2022-12-23T02:23:28.844Z,13.13
2022-12-23T02:26:23.564Z,13.30
2022-12-23T02:29:19.682Z,13.10
2022-12-23T02:32:02.462Z,12.38
2022-12-23T02:34:40.937Z,10.60
2022-12-23T02:37:21.689Z,11.40
2022-12-23T02:39:58.956Z,11.13
2022-12-23T02:42:37.876Z,10.40
2022-12-23T02:45:14.497Z,9.23
2022-12-23T02:47:54.181Z,11.68
2022-12-23T02:50:31.314Z,11.93
2022-12-23T02:53:09.961Z,11.38
2022-12-23T02:55:43.183Z,10.77
2022-12-23T02:58:18.624Z,11.55
2022-12-23T03:00:51.130Z,11.63
2022-12-23T03:03:23.827Z,12.48
2022-12-23T03:05:54.440Z,11.55
2022-12-23T03:08:28.899Z,11.13
2022-12-23T03:11:08.396Z,11.32
2022-12-23T03:14:02.688Z,11.98
2022-12-23T03:16:48.217Z,11.10
2022-12-23T03:19:31.890Z,11.07
2022-12-23T03:22:12.270Z,10.88
2022-12-23T03:24:51.630Z,10.93
2022-12-23T03:27:28.416Z,11.35
2022-12-23T03:30:03.217Z,12.73
2022-12-23T03:35:12.567Z,10.85
2022-12-23T03:37:47.789Z,12.40
2022-12-23T03:40:23.051Z,11.75
2022-12-23T03:42:58.617Z,12.00
2022-12-23T03:45:41.543Z,10.77
2022-12-23T03:48:19.582Z,10.55
2022-12-23T03:50:57.321Z,10.75
2022-12-23T03:53:31.298Z,10.52
2022-12-23T03:56:05.784Z,10.60
2022-12-23T03:58:43.382Z,11.18
2022-12-23T04:01:19.937Z,10.20
2022-12-23T04:03:58.200Z,11.43
2022-12-23T04:06:36.447Z,11.15
2022-12-23T04:09:07.501Z,10.35
2022-12-23T04:11:38.630Z,9.70
2022-12-23T04:14:09.852Z,10.00
2022-12-23T04:16:39.925Z,10.48
2022-12-23T04:19:12.322Z,10.63
2022-12-23T04:21:44.902Z,12.48
2022-12-23T04:24:14.786Z,12.60
2022-12-23T04:26:44.639Z,12.25
2022-12-23T04:29:14.489Z,12.30
2022-12-23T04:31:44.504Z,12.18
2022-12-23T04:34:14.449Z,11.75
2022-12-23T04:36:46.919Z,13.70
2022-12-23T04:39:16.929Z,12.73
2022-12-23T04:41:46.813Z,12.75
2022-12-23T04:44:16.869Z,14.38
2022-12-23T04:46:46.851Z,13.60
2022-12-23T04:49:16.727Z,13.38
2022-12-23T04:51:49.223Z,12.20
2022-12-23T04:54:19.313Z,14.07
2022-12-23T04:56:51.676Z,12.38
2022-12-23T04:59:21.558Z,13.13
2022-12-23T05:01:51.582Z,13.85
2022-12-23T05:04:21.713Z,12.57
2022-12-23T05:06:54.338Z,12.50
2022-12-23T05:09:24.328Z,11.45
2022-12-23T05:11:54.195Z,11.23
2022-12-23T05:14:24.081Z,10.25
2022-12-23T05:16:53.963Z,10.32
2022-12-23T05:19:23.913Z,12.43
2022-12-23T05:21:56.346Z,9.90
2022-12-23T05:24:26.244Z,12.02
2022-12-23T05:27:00.142Z,13.98
2022-12-23T05:29:30.518Z,11.35
2022-12-23T05:32:00.416Z,10.40
2022-12-23T05:34:30.789Z,11.07
2022-12-23T05:37:03.244Z,12.18
2022-12-23T05:39:33.112Z,11.10
2022-12-23T05:42:02.983Z,11.95
2022-12-23T05:44:32.841Z,10.75
2022-12-23T05:47:02.688Z,9.90
2022-12-23T05:49:32.584Z,12.02
2022-12-23T05:52:05.016Z,10.68
2022-12-23T05:54:34.902Z,11.88
2022-12-23T05:57:04.820Z,10.15
2022-12-23T05:59:34.697Z,11.65
2022-12-23T06:02:04.721Z,9.68
2022-12-23T06:04:34.727Z,9.07
2022-12-23T06:07:07.289Z,9.95
2022-12-23T06:09:37.194Z,9.85
2022-12-23T06:12:07.763Z,11.52
2022-12-23T06:14:37.609Z,9.65
2022-12-23T06:17:07.567Z,10.20
2022-12-23T06:19:37.449Z,10.07
2022-12-23T06:22:10.003Z,8.73
2022-12-23T06:24:39.894Z,7.93
2022-12-23T06:27:09.825Z,9.38
2022-12-23T06:29:39.733Z,7.68
2022-12-23T06:32:10.175Z,11.50
2022-12-23T06:34:40.055Z,10.70
2022-12-23T06:37:12.707Z,8.10
2022-12-23T06:39:42.573Z,8.70
2022-12-23T06:42:12.412Z,8.07
2022-12-23T06:44:42.273Z,9.02
2022-12-23T06:47:12.134Z,10.07
2022-12-23T06:49:42.006Z,8.45
2022-12-23T06:52:14.520Z,7.97
2022-12-23T06:54:44.357Z,7.82
2022-12-23T06:57:14.222Z,8.38
2022-12-23T06:59:44.082Z,9.48
2022-12-23T07:02:14.654Z,9.10
2022-12-23T07:04:44.612Z,11.65
2022-12-23T07:07:17.075Z,10.20
2022-12-23T07:09:47.165Z,8.30
2022-12-23T07:12:17.059Z,8.68
2022-12-23T07:14:46.883Z,8.65
2022-12-23T07:17:16.843Z,7.93
2022-12-23T07:19:46.716Z,9.27
2022-12-23T07:22:19.205Z,7.40
2022-12-23T07:24:49.054Z,7.75
2022-12-23T07:27:19.153Z,9.25
2022-12-23T07:29:48.998Z,10.13
2022-12-23T07:32:18.889Z,10.43
2022-12-23T07:34:48.734Z,12.70
2022-12-23T07:37:21.207Z,11.75
2022-12-23T07:39:51.067Z,13.18
2022-12-23T07:45:12.159Z,13.73
2022-12-23T07:47:42.025Z,12.73
2022-12-23T07:50:12.951Z,13.73
2022-12-23T07:52:45.396Z,13.20
2022-12-23T07:55:15.621Z,12.52
2022-12-23T07:57:45.668Z,12.52
2022-12-23T08:00:18.441Z,12.82
2022-12-23T08:02:48.924Z,13.88
2022-12-23T08:05:19.732Z,13.52
2022-12-23T08:07:52.346Z,13.00
2022-12-23T08:10:22.603Z,12.98
2022-12-23T08:12:52.445Z,12.70
2022-12-23T08:15:22.331Z,12.57
2022-12-23T08:17:52.194Z,12.20
2022-12-23T08:20:22.046Z,12.88
2022-12-23T08:22:54.524Z,13.48
2022-12-23T08:25:24.438Z,12.07
2022-12-23T08:27:54.528Z,12.65
2022-12-23T08:30:24.372Z,12.45
2022-12-23T08:32:54.396Z,13.52
2022-12-23T08:35:24.241Z,11.85
2022-12-23T08:37:56.678Z,11.60
2022-12-23T08:40:26.521Z,12.93
2022-12-23T08:42:56.718Z,12.75
2022-12-23T08:45:26.782Z,13.93
2022-12-23T08:47:56.670Z,13.20
2022-12-23T08:50:26.515Z,13.27
2022-12-23T08:52:58.991Z,11.63
2022-12-23T08:55:28.903Z,11.68
2022-12-23T08:57:58.755Z,10.13
2022-12-23T09:00:28.621Z,12.10
2022-12-23T09:02:58.584Z,10.80
2022-12-23T09:05:28.528Z,12.07
2022-12-23T09:08:01.573Z,11.13
2022-12-23T09:10:31.429Z,11.43
2022-12-23T09:13:01.274Z,12.60
2022-12-23T09:15:31.202Z,14.00
2022-12-23T09:18:01.076Z,13.73
2022-12-23T09:20:30.921Z,13.75
2022-12-23T09:23:03.920Z,12.27
2022-12-23T09:25:34.002Z,11.93
2022-12-23T09:28:03.894Z,10.80
2022-12-23T09:30:33.787Z,9.75
2022-12-23T09:33:03.661Z,10.70
2022-12-23T09:35:33.517Z,11.10
2022-12-23T09:38:05.955Z,9.90
2022-12-23T09:40:39.825Z,10.02
2022-12-23T09:43:21.406Z,10.80
2022-12-23T09:46:07.862Z,11.38
2022-12-23T09:48:45.591Z,10.82
2022-12-23T09:51:16.542Z,12.52
2022-12-23T09:54:02.311Z,11.10
2022-12-23T09:56:42.348Z,10.77
2022-12-23T09:59:28.840Z,11.43
2022-12-23T10:02:05.914Z,14.65
2022-12-23T10:04:49.755Z,13.50
2022-12-23T10:07:36.889Z,10.93
2022-12-23T10:10:20.300Z,12.77
2022-12-23T10:12:54.349Z,13.65
2022-12-23T10:15:31.760Z,10.68
2022-12-23T10:18:07.835Z,10.77
2022-12-23T10:20:44.383Z,8.63
2022-12-23T10:23:20.676Z,10.00
2022-12-23T10:25:55.933Z,9.50
2022-12-23T10:28:29.542Z,8.80
2022-12-23T10:34:07.204Z,10.38
2022-12-23T10:36:45.390Z,12.50
2022-12-23T10:39:27.838Z,12.13
2022-12-23T10:42:15.027Z,11.15
2022-12-23T10:45:28.614Z,9.00
2022-12-23T10:48:18.081Z,10.93
2022-12-23T10:50:59.875Z,10.27
2022-12-23T10:53:38.938Z,9.63
2022-12-23T10:56:10.858Z,9.65
2022-12-23T10:58:48.036Z,9.27
2022-12-23T11:01:26.619Z,8.85
2022-12-23T11:04:06.482Z,10.35
2022-12-23T11:06:41.088Z,10.68
2022-12-23T11:09:18.461Z,10.45
2022-12-23T11:12:00.753Z,8.95
2022-12-23T11:14:42.823Z,9.88
2022-12-23T11:17:24.696Z,9.95
2022-12-23T11:20:16.602Z,10.35
2022-12-23T11:22:55.836Z,9.75
2022-12-23T11:25:33.271Z,9.73
2022-12-23T11:28:07.169Z,9.82
2022-12-23T11:30:55.640Z,9.75
2022-12-23T11:33:30.281Z,8.70
2022-12-23T11:36:06.786Z,8.20
2022-12-23T11:38:39.354Z,8.07
2022-12-23T11:41:10.654Z,9.23
2022-12-23T11:43:42.801Z,8.95
2022-12-23T11:46:29.990Z,9.48
2022-12-23T11:49:18.016Z,8.98
2022-12-23T11:51:51.352Z,9.18
2022-12-23T11:54:23.351Z,8.95
2022-12-23T11:56:55.346Z,8.25
2022-12-23T11:59:33.883Z,7.68
2022-12-23T12:02:16.419Z,8.40
2022-12-23T12:04:46.338Z,9.00
2022-12-23T12:07:17.392Z,9.07
2022-12-23T12:09:47.725Z,7.18
2022-12-23T12:12:22.253Z,8.15
2022-12-23T12:14:55.104Z,7.95
2022-12-23T12:17:36.033Z,8.75
2022-12-23T12:20:13.838Z,8.00
2022-12-23T12:22:49.530Z,9.95
2022-12-23T12:25:22.885Z,9.73
2022-12-23T12:27:58.985Z,9.60
2022-12-23T12:30:36.124Z,10.25
2022-12-23T12:33:16.824Z,9.55
2022-12-23T12:35:53.746Z,10.38
2022-12-23T12:38:28.925Z,9.35
2022-12-23T12:41:04.581Z,10.38
2022-12-23T12:43:38.386Z,10.48
2022-12-23T12:46:23.096Z,11.38
2022-12-23T12:49:03.991Z,9.43
2022-12-23T12:51:41.315Z,11.50
2022-12-23T12:54:20.832Z,11.07
2022-12-23T12:56:54.559Z,11.50
2022-12-23T12:59:31.476Z,9.68
2022-12-23T13:02:29.493Z,11.85
2022-12-23T13:05:33.455Z,12.35
2022-12-23T13:08:26.224Z,9.85
2022-12-23T13:11:00.300Z,8.82
2022-12-23T13:13:44.739Z,11.30
2022-12-23T13:16:27.294Z,8.65
2022-12-23T13:19:03.813Z,10.75
2022-12-23T13:21:47.535Z,13.43
2022-12-23T13:24:28.716Z,16.10
2022-12-23T13:27:10.960Z,10.27
2022-12-23T13:30:01.793Z,10.77
2022-12-23T13:33:05.272Z,13.55
2022-12-23T13:36:05.811Z,12.55
2022-12-23T13:38:57.173Z,9.13
2022-12-23T13:41:35.351Z,7.97
2022-12-23T13:44:07.915Z,7.15
2022-12-23T13:46:49.883Z,7.90
2022-12-23T13:49:34.266Z,9.60
2022-12-23T13:52:13.191Z,11.05
2022-12-23T13:54:59.386Z,8.80
2022-12-23T13:57:50.043Z,10.77
2022-12-23T14:00:30.807Z,7.63
2022-12-23T14:03:27.942Z,6.88
2022-12-23T14:05:57.853Z,8.07
2022-12-23T14:08:35.860Z,8.02
2022-12-23T14:11:20.480Z,8.05
2022-12-23T14:13:58.790Z,7.10
2022-12-23T14:16:54.895Z,6.50
2022-12-23T14:20:09.224Z,7.72
2022-12-23T14:22:58.691Z,6.47
2022-12-23T14:25:57.849Z,7.57
2022-12-23T14:29:15.332Z,7.50
2022-12-23T14:31:49.136Z,7.22
2022-12-23T14:34:32.466Z,8.15
2022-12-23T14:37:37.137Z,8.23
2022-12-23T14:41:07.094Z,9.60
2022-12-23T14:43:59.367Z,9.50
2022-12-23T14:47:00.921Z,9.25
2022-12-23T14:49:45.966Z,8.75
2022-12-23T14:53:04.384Z,9.27
2022-12-23T14:55:48.392Z,10.73
2022-12-23T14:59:00.141Z,11.05
2022-12-23T15:01:40.343Z,9.75
2022-12-23T15:04:19.215Z,12.77
2022-12-23T15:06:52.407Z,15.40
2022-12-23T15:09:28.090Z,18.80
2022-12-23T15:12:01.636Z,16.25
2022-12-23T15:14:37.627Z,15.05
2022-12-23T15:17:32.682Z,12.90
2022-12-23T15:20:17.563Z,11.63
2022-12-23T15:22:49.770Z,11.80
2022-12-23T15:25:25.163Z,13.73
2022-12-23T15:28:01.506Z,16.67
2022-12-23T15:30:37.166Z,15.93
2022-12-23T15:33:43.328Z,17.15
2022-12-23T15:36:04.503Z,18.10
2022-12-23T15:38:38.791Z,14.07
2022-12-23T15:41:18.747Z,15.68
2022-12-23T15:43:48.912Z,13.10
2022-12-23T15:46:28.534Z,12.55
2022-12-23T15:49:01.524Z,13.45
2022-12-23T15:54:30.091Z,15.30
2022-12-23T15:57:02.375Z,17.27
2022-12-23T15:59:37.355Z,14.43
2022-12-23T16:02:49.775Z,15.50
2022-12-23T16:05:07.660Z,14.80
2022-12-23T16:07:40.997Z,16.40
2022-12-23T16:10:19.198Z,20.33
2022-12-23T16:12:54.393Z,16.95
2022-12-23T16:15:30.972Z,19.65
2022-12-23T16:18:16.416Z,19.77
2022-12-23T16:20:51.522Z,16.52
2022-12-23T16:23:21.482Z,14.50
2022-12-23T16:25:54.567Z,13.63
2022-12-23T16:28:29.649Z,14.43
2022-12-23T16:31:01.012Z,13.45
2022-12-23T16:33:39.755Z,13.85
2022-12-23T16:36:25.969Z,13.38
2022-12-23T16:38:59.991Z,17.73
2022-12-23T16:41:30.204Z,20.73
2022-12-23T16:44:00.209Z,21.00
2022-12-23T16:46:31.220Z,16.60
2022-12-23T16:49:05.108Z,16.25
2022-12-23T16:51:37.908Z,17.17
2022-12-23T16:54:08.159Z,16.83
2022-12-23T16:56:40.772Z,17.48
2022-12-23T16:59:11.035Z,19.13
2022-12-23T17:01:44.088Z,18.85
2022-12-23T17:04:14.469Z,19.80
2022-12-23T17:06:46.899Z,21.52
2022-12-23T17:09:16.847Z,29.35
2022-12-23T17:11:50.126Z,35.03
2022-12-23T17:14:23.092Z,36.63
2022-12-23T17:16:54.141Z,32.88
2022-12-23T17:19:29.436Z,36.45
2022-12-23T17:22:04.930Z,32.03
2022-12-23T17:24:34.848Z,31.67
2022-12-23T17:27:04.770Z,30.45
2022-12-23T17:29:34.683Z,29.50
2022-12-23T17:32:04.651Z,29.50
2022-12-23T17:34:34.595Z,29.23
2022-12-23T17:37:17.244Z,29.27
2022-12-23T17:39:48.648Z,27.45
2022-12-23T17:42:25.543Z,26.90
2022-12-23T17:44:55.766Z,24.23
2022-12-23T17:47:25.688Z,23.70
2022-12-23T17:49:55.590Z,19.00
2022-12-23T17:52:28.371Z,20.45
2022-12-23T17:54:58.351Z,23.80
2022-12-23T17:57:29.768Z,30.05
2022-12-23T17:59:59.632Z,35.13
2022-12-23T18:02:32.972Z,31.23
2022-12-23T18:05:03.144Z,30.58
2022-12-23T18:07:35.607Z,33.35
2022-12-23T18:10:05.627Z,31.80
2022-12-23T18:12:40.234Z,27.23
2022-12-23T18:15:21.488Z,24.35
2022-12-23T18:17:52.304Z,28.90
2022-12-23T18:20:24.473Z,28.33
2022-12-23T18:23:03.130Z,24.40
2022-12-23T18:25:34.314Z,22.92
2022-12-23T18:28:04.183Z,22.92
2022-12-23T18:30:34.093Z,22.40
2022-12-23T18:33:03.977Z,23.73
2022-12-23T18:35:38.417Z,25.23
2022-12-23T18:38:10.955Z,23.90
2022-12-23T18:40:42.759Z,24.08
2022-12-23T18:43:21.697Z,22.67
2022-12-23T18:45:54.151Z,24.67
2022-12-23T18:48:24.256Z,23.77
2022-12-23T18:50:54.165Z,24.52
2022-12-23T18:53:27.193Z,23.88
2022-12-23T18:55:57.887Z,25.83
2022-12-23T18:58:27.747Z,25.10
2022-12-23T19:00:57.677Z,24.00
2022-12-23T19:03:30.553Z,24.98
2022-12-23T19:06:06.653Z,24.13
2022-12-23T19:08:43.517Z,24.80
2022-12-23T19:11:14.602Z,24.70
2022-12-23T19:13:44.565Z,27.40
2022-12-23T19:16:16.427Z,27.38
2022-12-23T19:18:47.023Z,24.73
2022-12-23T19:21:17.284Z,26.13
2022-12-23T19:23:49.739Z,23.58
2022-12-23T19:26:19.707Z,20.25
2022-12-23T19:28:51.948Z,17.92
2022-12-23T19:31:23.191Z,18.67
2022-12-23T19:33:55.399Z,18.25
2022-12-23T19:36:25.810Z,17.98
2022-12-23T19:38:59.387Z,18.48
2022-12-23T19:41:29.669Z,18.45
2022-12-23T19:43:59.553Z,19.05
2022-12-23T19:46:29.483Z,21.90
2022-12-23T19:48:59.370Z,21.88
2022-12-23T19:51:29.223Z,20.75
2022-12-23T19:54:01.676Z,22.20
2022-12-23T19:56:32.529Z,20.20
2022-12-23T19:59:02.403Z,21.00
2022-12-23T20:01:32.317Z,20.73
2022-12-23T20:04:02.252Z,21.58
2022-12-23T20:06:38.300Z,20.25
2022-12-23T20:09:13.388Z,20.33
2022-12-23T20:11:46.608Z,19.92
2022-12-23T20:14:21.704Z,21.08
2022-12-23T20:16:52.121Z,17.77
2022-12-23T20:19:22.200Z,19.15
2022-12-23T20:21:52.169Z,19.05
2022-12-23T20:24:24.832Z,19.23
2022-12-23T20:26:54.707Z,17.23
2022-12-23T20:29:24.584Z,16.25
2022-12-23T20:31:54.481Z,18.55
2022-12-23T20:34:24.350Z,19.20
2022-12-23T20:36:54.266Z,18.15
2022-12-23T20:39:26.690Z,18.70
2022-12-23T20:41:57.503Z,18.98
2022-12-23T20:44:36.967Z,21.55
2022-12-23T20:47:09.054Z,22.25
2022-12-23T20:49:38.910Z,21.65
2022-12-23T20:52:08.803Z,22.77
2022-12-23T20:54:41.235Z,22.27
2022-12-23T20:57:11.114Z,21.98
2022-12-23T20:59:40.999Z,19.23
2022-12-23T21:02:15.037Z,20.60
2022-12-23T21:04:45.150Z,20.13
2022-12-23T21:07:15.085Z,17.77
2022-12-23T21:09:47.523Z,18.25
2022-12-23T21:12:17.439Z,16.85
2022-12-23T21:14:47.734Z,17.15
2022-12-23T21:17:17.637Z,17.35
2022-12-23T21:19:47.559Z,15.43
2022-12-23T21:22:17.439Z,12.73
2022-12-23T21:24:49.879Z,13.48
2022-12-23T21:27:19.740Z,15.52
2022-12-23T21:29:49.585Z,14.95
2022-12-23T21:32:19.512Z,13.05
2022-12-23T21:34:49.405Z,12.75
2022-12-23T21:37:19.272Z,12.30
2022-12-23T21:39:51.783Z,12.45
2022-12-23T21:42:21.700Z,13.95
2022-12-23T21:44:51.587Z,13.18
2022-12-23T21:47:21.479Z,15.20
2022-12-23T21:49:51.384Z,14.40
2022-12-23T21:52:21.300Z,13.85
2022-12-23T21:54:53.760Z,11.95
2022-12-23T21:57:23.658Z,10.45
2022-12-23T21:59:53.511Z,9.73
2022-12-23T22:02:23.563Z,9.30
2022-12-23T22:04:53.552Z,10.25
2022-12-23T22:07:23.555Z,9.40
2022-12-23T22:09:55.980Z,8.63
2022-12-23T22:12:25.829Z,9.20
2022-12-23T22:14:55.715Z,8.88
2022-12-23T22:17:25.566Z,9.52
2022-12-23T22:19:55.416Z,10.38
2022-12-23T22:22:25.338Z,9.98
2022-12-23T22:24:57.735Z,10.73
2022-12-23T22:27:27.557Z,10.18
2022-12-23T22:29:57.410Z,9.25
2022-12-23T22:32:27.280Z,9.13
2022-12-23T22:34:57.207Z,8.55
2022-12-23T22:37:27.217Z,8.60
2022-12-23T22:39:59.970Z,7.15
2022-12-23T22:42:29.834Z,7.88
2022-12-23T22:44:59.757Z,7.55
2022-12-23T22:47:29.706Z,8.30
2022-12-23T22:49:59.748Z,9.27
2022-12-23T22:52:29.628Z,7.72
2022-12-23T22:55:02.099Z,9.15
2022-12-23T22:57:32.040Z,9.23
2022-12-23T23:00:07.826Z,8.77
2022-12-23T23:02:41.623Z,10.35
2022-12-23T23:05:13.327Z,7.65
2022-12-23T23:07:43.346Z,10.63
2022-12-23T23:10:16.153Z,9.60
2022-12-23T23:12:47.503Z,10.25
2022-12-23T23:15:17.458Z,10.30
2022-12-23T23:17:47.324Z,10.40
2022-12-23T23:20:17.181Z,8.93
2022-12-23T23:22:47.093Z,10.02
2022-12-23T23:25:19.873Z,9.80
2022-12-23T23:27:49.718Z,8.90
2022-12-23T23:30:19.737Z,5.85
2022-12-23T23:32:49.658Z,8.30
2022-12-23T23:35:19.775Z,9.45
2022-12-23T23:37:49.640Z,8.95
2022-12-23T23:40:22.307Z,9.02
2022-12-23T23:42:52.161Z,8.57
2022-12-23T23:45:22.168Z,9.52
2022-12-23T23:47:52.128Z,8.05
2022-12-23T23:50:22.338Z,9.43
2022-12-23T23:52:52.456Z,8.98
2022-12-23T23:55:24.922Z,8.38
2022-12-23T23:57:54.839Z,9.13
